createdAt,value
2023-03-29T00:08:06.516Z,57
2023-03-29T00:37:22.312Z,59
2023-03-29T01:06:44.041Z,60
2023-03-29T01:35:52.674Z,59
2023-03-29T02:05:06.399Z,59
2023-03-29T02:34:18.921Z,64
2023-03-29T03:03:31.527Z,63
2023-03-29T03:32:39.306Z,62
2023-03-29T04:01:46.794Z,59
2023-03-29T04:31:02.523Z,60
2023-03-29T05:00:01.629Z,66
2023-03-29T05:29:12.444Z,66
2023-03-29T05:58:28.591Z,72
2023-03-29T06:27:42.761Z,72
2023-03-29T06:56:56.032Z,74
2023-03-29T07:26:05.756Z,74
2023-03-29T07:55:20.959Z,72
2023-03-29T08:24:38.826Z,72
2023-03-29T08:53:54.675Z,63
2023-03-29T09:23:11.979Z,59
2023-03-29T09:52:27.403Z,60
2023-03-29T10:21:47.194Z,54
2023-03-29T10:51:09.772Z,53
2023-03-29T11:20:34.376Z,46
2023-03-29T11:49:59.122Z,46
2023-03-29T12:19:21.248Z,46
2023-03-29T12:48:46.734Z,43
2023-03-29T13:18:12.956Z,43
2023-03-29T13:47:06.864Z,43
2023-03-29T14:16:27.960Z,42
2023-03-29T14:45:52.498Z,42
2023-03-29T15:15:17.488Z,40
2023-03-29T15:44:31.487Z,44
2023-03-29T16:13:49.835Z,45
2023-03-29T16:42:55.656Z,48
2023-03-29T17:12:12.858Z,48
2023-03-29T17:41:33.015Z,47
2023-03-29T18:10:51.372Z,46
2023-03-29T18:40:17.086Z,44
2023-03-29T19:09:39.636Z,44
2023-03-29T19:38:55.626Z,45
2023-03-29T20:08:07.816Z,45
2023-03-29T20:37:22.082Z,45
2023-03-29T21:06:37.985Z,46
2023-03-29T21:36:00.659Z,47
2023-03-29T22:05:18.455Z,47
2023-03-29T22:34:43.229Z,48
2023-03-29T23:04:07.281Z,50
2023-03-29T23:33:24.624Z,50
